AAL2287 KAUS-KMCO
Flight info
| Callsign | AAL2287 |
|---|---|
| Flight time | N/A |
| Altitude | 35000 |
| Route | ILEXY4 ZENZI IAH J86 LEV Y280 CHRGE PRICY4 |
| Aircraft | A321/M-SDE3FGHIRWY/LB1 |
Departure
| Time | 2026-05-01 13:07 |
|---|---|
| Airport | Austin Bergstrom International Airport (KAUS) |
Arrival
| Time | N/A |
|---|---|
| Airport | Orlando International Airport (KMCO) |
| Time | Latitude | Longitude | Altitude | Speed | Heading |
|---|---|---|---|---|---|
| 2026-05-01 12:51 | 30.20171 | -97.67052 | 527 ft | 0 kts | 31° |
| 2026-05-01 12:53 | 30.20157 | -97.67062 | 527 ft | 3 kts | 31° |
| 2026-05-01 12:53 | 30.20141 | -97.67073 | 527 ft | 3 kts | 31° |
| 2026-05-01 12:53 | 30.20126 | -97.67084 | 527 ft | 3 kts | 31° |
| 2026-05-01 12:54 | 30.20110 | -97.67094 | 527 ft | 3 kts | 31° |
| 2026-05-01 12:54 | 30.20080 | -97.67114 | 527 ft | 3 kts | 39° |
| 2026-05-01 12:54 | 30.20070 | -97.67131 | 527 ft | 2 kts | 89° |
| 2026-05-01 12:55 | 30.20070 | -97.67132 | 527 ft | 0 kts | 89° |
| 2026-05-01 12:56 | 30.20071 | -97.67115 | 527 ft | 4 kts | 90° |
| 2026-05-01 12:56 | 30.20059 | -97.67063 | 527 ft | 8 kts | 112° |
| 2026-05-01 12:57 | 30.20034 | -97.67015 | 527 ft | 7 kts | 129° |
| 2026-05-01 12:57 | 30.19874 | -97.66984 | 527 ft | 13 kts | 175° |
| 2026-05-01 12:57 | 30.19829 | -97.66920 | 527 ft | 10 kts | 95° |
| 2026-05-01 12:58 | 30.19830 | -97.66849 | 527 ft | 8 kts | 89° |
| 2026-05-01 12:58 | 30.19831 | -97.66767 | 527 ft | 13 kts | 89° |
| 2026-05-01 12:58 | 30.19834 | -97.66646 | 527 ft | 17 kts | 89° |
| 2026-05-01 12:59 | 30.19841 | -97.66300 | 527 ft | 25 kts | 88° |
| 2026-05-01 12:59 | 30.19847 | -97.66084 | 527 ft | 25 kts | 90° |
| 2026-05-01 12:59 | 30.19711 | -97.65984 | 527 ft | 12 kts | 179° |
| 2026-05-01 13:00 | 30.19474 | -97.65980 | 527 ft | 22 kts | 179° |
| 2026-05-01 13:00 | 30.19308 | -97.65975 | 528 ft | 26 kts | 179° |
| 2026-05-01 13:01 | 30.18887 | -97.65965 | 528 ft | 34 kts | 179° |
| 2026-05-01 13:01 | 30.18650 | -97.65959 | 527 ft | 33 kts | 178° |
| 2026-05-01 13:01 | 30.18247 | -97.65944 | 527 ft | 25 kts | 180° |
| 2026-05-01 13:02 | 30.18082 | -97.65942 | 527 ft | 22 kts | 178° |
| 2026-05-01 13:07 | 30.27549 | -97.52079 | 6728 ft | 250 kts | 69° |
| 2026-05-01 13:07 | 30.28069 | -97.50135 | 7211 ft | 257 kts | 69° |
| 2026-05-01 13:07 | 30.28604 | -97.48134 | 7670 ft | 263 kts | 71° |
| 2026-05-01 13:08 | 30.29151 | -97.46093 | 8162 ft | 269 kts | 71° |
| 2026-05-01 13:08 | 30.29713 | -97.43995 | 8666 ft | 275 kts | 72° |
| 2026-05-01 13:08 | 30.30284 | -97.41859 | 9198 ft | 280 kts | 73° |
| 2026-05-01 13:08 | 30.30863 | -97.39683 | 9720 ft | 285 kts | 75° |
| 2026-05-01 13:09 | 30.31451 | -97.37470 | 10192 ft | 290 kts | 75° |
| 2026-05-01 13:09 | 30.32046 | -97.35221 | 10668 ft | 294 kts | 75° |
| 2026-05-01 13:09 | 30.32650 | -97.32936 | 11110 ft | 300 kts | 76° |
| 2026-05-01 13:09 | 30.33268 | -97.30600 | 11545 ft | 306 kts | 76° |
| 2026-05-01 13:10 | 30.33896 | -97.28219 | 11992 ft | 312 kts | 76° |
| 2026-05-01 13:10 | 30.34537 | -97.25788 | 12441 ft | 318 kts | 76° |
| 2026-05-01 13:10 | 30.35190 | -97.23318 | 12898 ft | 324 kts | 76° |
| 2026-05-01 13:10 | 30.35822 | -97.20799 | 13356 ft | 327 kts | 83° |
| 2026-05-01 13:11 | 30.35896 | -97.18191 | 13818 ft | 325 kts | 97° |
| 2026-05-01 13:11 | 30.35761 | -97.15566 | 14229 ft | 329 kts | 98° |
| 2026-05-01 13:11 | 30.35601 | -97.12952 | 14638 ft | 332 kts | 98° |
| 2026-05-01 13:11 | 30.35428 | -97.10269 | 15060 ft | 336 kts | 98° |
| 2026-05-01 13:12 | 30.35256 | -97.07555 | 15452 ft | 340 kts | 98° |
| 2026-05-01 13:12 | 30.35085 | -97.04797 | 15817 ft | 346 kts | 98° |
| 2026-05-01 13:12 | 30.34917 | -97.02000 | 16186 ft | 351 kts | 98° |
| 2026-05-01 13:12 | 30.34750 | -96.99165 | 16557 ft | 355 kts | 98° |
| 2026-05-01 13:13 | 30.34583 | -96.96295 | 16931 ft | 360 kts | 98° |
| 2026-05-01 13:13 | 30.34413 | -96.93387 | 17314 ft | 364 kts | 98° |
| 2026-05-01 13:13 | 30.34242 | -96.90450 | 17694 ft | 368 kts | 98° |
| 2026-05-01 13:13 | 30.34068 | -96.87482 | 18088 ft | 371 kts | 98° |
| 2026-05-01 13:14 | 30.33887 | -96.84492 | 18452 ft | 374 kts | 98° |
| 2026-05-01 13:14 | 30.33705 | -96.81478 | 18808 ft | 376 kts | 98° |
| 2026-05-01 13:14 | 30.33523 | -96.78450 | 19133 ft | 378 kts | 98° |
| 2026-05-01 13:14 | 30.33340 | -96.75410 | 19482 ft | 380 kts | 98° |
| 2026-05-01 13:15 | 30.33153 | -96.72353 | 19828 ft | 382 kts | 98° |
| 2026-05-01 13:15 | 30.32959 | -96.69279 | 20180 ft | 384 kts | 98° |
| 2026-05-01 13:15 | 30.32763 | -96.66194 | 20528 ft | 385 kts | 98° |
| 2026-05-01 13:15 | 30.32568 | -96.63099 | 20884 ft | 386 kts | 98° |
| 2026-05-01 13:16 | 30.32372 | -96.59991 | 21244 ft | 387 kts | 98° |
| 2026-05-01 13:16 | 30.32177 | -96.56875 | 21611 ft | 388 kts | 98° |
| 2026-05-01 13:16 | 30.31985 | -96.53801 | 21927 ft | 388 kts | 98° |
| 2026-05-01 13:17 | 30.31392 | -96.44439 | 22849 ft | 394 kts | 98° |
| 2026-05-01 13:17 | 30.31182 | -96.41252 | 22986 ft | 401 kts | 98° |
| 2026-05-01 13:18 | 30.30745 | -96.34702 | 23237 ft | 414 kts | 98° |
| 2026-05-01 13:18 | 30.30527 | -96.31346 | 23372 ft | 421 kts | 98° |
| 2026-05-01 13:18 | 30.30307 | -96.27934 | 23491 ft | 428 kts | 98° |
| 2026-05-01 13:18 | 30.30081 | -96.24474 | 23596 ft | 435 kts | 98° |
| 2026-05-01 13:19 | 30.29850 | -96.20958 | 23674 ft | 442 kts | 97° |
| 2026-05-01 13:19 | 30.29616 | -96.17383 | 23779 ft | 449 kts | 97° |
| 2026-05-01 13:19 | 30.29134 | -96.10069 | 23987 ft | 460 kts | 97° |
| 2026-05-01 13:20 | 30.28779 | -96.06403 | 24107 ft | 455 kts | 108° |
| 2026-05-01 13:20 | 30.27860 | -96.02951 | 24219 ft | 447 kts | 116° |
| 2026-05-01 13:20 | 30.26594 | -95.99687 | 24331 ft | 442 kts | 123° |
| 2026-05-01 13:21 | 30.23479 | -95.93521 | 24638 ft | 449 kts | 127° |
| 2026-05-01 13:21 | 30.21833 | -95.90427 | 24822 ft | 454 kts | 126° |
| 2026-05-01 13:21 | 30.20213 | -95.87258 | 25028 ft | 460 kts | 124° |
| 2026-05-01 13:21 | 30.18662 | -95.84064 | 25195 ft | 464 kts | 123° |
| 2026-05-01 13:22 | 30.17132 | -95.80765 | 25381 ft | 467 kts | 122° |
| 2026-05-01 13:22 | 30.15624 | -95.77433 | 25594 ft | 468 kts | 122° |
| 2026-05-01 13:22 | 30.14117 | -95.74095 | 25798 ft | 469 kts | 122° |
| 2026-05-01 13:22 | 30.12597 | -95.70757 | 25994 ft | 470 kts | 122° |
| 2026-05-01 13:23 | 30.11070 | -95.67438 | 26175 ft | 465 kts | 122° |
| 2026-05-01 13:23 | 30.09548 | -95.64156 | 26365 ft | 463 kts | 122° |
| 2026-05-01 13:23 | 30.08022 | -95.60883 | 26665 ft | 464 kts | 123° |
| 2026-05-01 13:23 | 30.06484 | -95.57603 | 26863 ft | 465 kts | 123° |
| 2026-05-01 13:24 | 30.04938 | -95.54312 | 27056 ft | 466 kts | 123° |
| 2026-05-01 13:24 | 30.03392 | -95.51019 | 27249 ft | 468 kts | 123° |
| 2026-05-01 13:24 | 30.01839 | -95.47706 | 27452 ft | 470 kts | 123° |
| 2026-05-01 13:25 | 29.98728 | -95.41063 | 27949 ft | 471 kts | 122° |
| 2026-05-01 13:25 | 29.97173 | -95.37738 | 28255 ft | 471 kts | 122° |
| 2026-05-01 13:25 | 29.95866 | -95.34270 | 28566 ft | 474 kts | 109° |
| 2026-05-01 13:25 | 29.95170 | -95.30546 | 28889 ft | 475 kts | 99° |
| 2026-05-01 13:26 | 29.94689 | -95.26783 | 29204 ft | 474 kts | 99° |
| 2026-05-01 13:26 | 29.94206 | -95.23022 | 29457 ft | 475 kts | 99° |
| 2026-05-01 13:26 | 29.93717 | -95.19242 | 29666 ft | 477 kts | 99° |
| 2026-05-01 13:26 | 29.93224 | -95.15462 | 29882 ft | 478 kts | 99° |
| 2026-05-01 13:27 | 29.92729 | -95.11666 | 30081 ft | 479 kts | 99° |
| 2026-05-01 13:27 | 29.92233 | -95.07862 | 30255 ft | 480 kts | 99° |
| 2026-05-01 13:27 | 29.91246 | -95.00283 | 30617 ft | 482 kts | 100° |
| 2026-05-01 13:28 | 29.90233 | -94.92572 | 30988 ft | 484 kts | 100° |
| 2026-05-01 13:28 | 29.89734 | -94.88779 | 31171 ft | 485 kts | 100° |
| 2026-05-01 13:29 | 29.88715 | -94.81041 | 31565 ft | 486 kts | 100° |
| 2026-05-01 13:29 | 29.87695 | -94.73387 | 31952 ft | 487 kts | 101° |
| 2026-05-01 13:30 | 29.85629 | -94.57976 | 32747 ft | 487 kts | 101° |
| 2026-05-01 13:31 | 29.84589 | -94.50238 | 33035 ft | 490 kts | 101° |
| 2026-05-01 13:31 | 29.83008 | -94.38543 | 33437 ft | 495 kts | 101° |
| 2026-05-01 13:32 | 29.81935 | -94.30679 | 33704 ft | 498 kts | 101° |
| 2026-05-01 13:33 | 29.80309 | -94.18803 | 34065 ft | 503 kts | 101° |
| 2026-05-01 13:33 | 29.79208 | -94.10833 | 34300 ft | 505 kts | 101° |
| 2026-05-01 13:34 | 29.78107 | -94.02827 | 34533 ft | 507 kts | 101° |
| 2026-05-01 13:34 | 29.76990 | -93.94790 | 34768 ft | 509 kts | 101° |
| 2026-05-01 13:35 | 29.75865 | -93.86743 | 34959 ft | 511 kts | 101° |
| 2026-05-01 13:35 | 29.75296 | -93.82688 | 34961 ft | 515 kts | 101° |
| 2026-05-01 13:36 | 29.73572 | -93.70454 | 34961 ft | 517 kts | 101° |
| 2026-05-01 13:36 | 29.71842 | -93.58204 | 34963 ft | 517 kts | 101° |
| 2026-05-01 13:37 | 29.70674 | -93.50051 | 34973 ft | 517 kts | 101° |
| 2026-05-01 13:37 | 29.69500 | -93.41894 | 34979 ft | 517 kts | 101° |
| 2026-05-01 13:38 | 29.67751 | -93.29704 | 34987 ft | 517 kts | 101° |
| 2026-05-01 13:39 | 29.66565 | -93.21536 | 34978 ft | 517 kts | 101° |
| 2026-05-01 13:39 | 29.65377 | -93.13371 | 34983 ft | 517 kts | 101° |
| 2026-05-01 13:40 | 29.64187 | -93.05206 | 34985 ft | 517 kts | 102° |
| 2026-05-01 13:40 | 29.62987 | -92.97043 | 34977 ft | 518 kts | 102° |
| 2026-05-01 13:41 | 29.61780 | -92.88878 | 34973 ft | 519 kts | 102° |
| 2026-05-01 13:41 | 29.60568 | -92.80707 | 34974 ft | 519 kts | 102° |
| 2026-05-01 13:42 | 29.59355 | -92.72526 | 34969 ft | 519 kts | 102° |
| 2026-05-01 13:42 | 29.58135 | -92.64345 | 34969 ft | 519 kts | 102° |
| 2026-05-01 13:43 | 29.56907 | -92.56170 | 34954 ft | 519 kts | 102° |
| 2026-05-01 13:43 | 29.55679 | -92.48054 | 34956 ft | 519 kts | 102° |
| 2026-05-01 13:44 | 29.54440 | -92.39885 | 34955 ft | 519 kts | 102° |
| 2026-05-01 13:44 | 29.53202 | -92.31720 | 34956 ft | 519 kts | 102° |
| 2026-05-01 13:45 | 29.51957 | -92.23562 | 34918 ft | 519 kts | 102° |
| 2026-05-01 13:45 | 29.50702 | -92.15386 | 34916 ft | 521 kts | 102° |
| 2026-05-01 13:46 | 29.49440 | -92.07177 | 34925 ft | 522 kts | 102° |
| 2026-05-01 13:46 | 29.48170 | -91.98951 | 34933 ft | 524 kts | 102° |
| 2026-05-01 13:47 | 29.46891 | -91.90718 | 34946 ft | 524 kts | 102° |
| 2026-05-01 13:47 | 29.45823 | -91.83875 | 34955 ft | 524 kts | 102° |
| 2026-05-01 13:48 | 29.44531 | -91.75635 | 34966 ft | 524 kts | 102° |
| 2026-05-01 13:48 | 29.43236 | -91.67405 | 34967 ft | 524 kts | 102° |
| 2026-05-01 13:49 | 29.41934 | -91.59164 | 34970 ft | 524 kts | 102° |
| 2026-05-01 13:49 | 29.40641 | -91.50986 | 34970 ft | 524 kts | 103° |
| 2026-05-01 13:50 | 29.39336 | -91.42760 | 34983 ft | 524 kts | 103° |
| 2026-05-01 13:50 | 29.38016 | -91.34541 | 34981 ft | 524 kts | 103° |
| 2026-05-01 13:51 | 29.36694 | -91.26334 | 34972 ft | 524 kts | 103° |
| 2026-05-01 13:51 | 29.35371 | -91.18130 | 34968 ft | 523 kts | 103° |
| 2026-05-01 13:52 | 29.34046 | -91.09927 | 34973 ft | 523 kts | 103° |
| 2026-05-01 13:52 | 29.32723 | -91.01732 | 34964 ft | 522 kts | 103° |
| 2026-05-01 13:53 | 29.31392 | -90.93551 | 34970 ft | 521 kts | 103° |
| 2026-05-01 13:53 | 29.29385 | -90.81313 | 34961 ft | 521 kts | 103° |
| 2026-05-01 13:54 | 29.28037 | -90.73161 | 34951 ft | 521 kts | 103° |
| 2026-05-01 13:54 | 29.26689 | -90.65017 | 34963 ft | 521 kts | 103° |
| 2026-05-01 13:55 | 29.25332 | -90.56875 | 34957 ft | 520 kts | 103° |
| 2026-05-01 13:55 | 29.23980 | -90.48739 | 34939 ft | 520 kts | 103° |
| 2026-05-01 13:56 | 29.22627 | -90.40603 | 34955 ft | 520 kts | 103° |
| 2026-05-01 13:56 | 29.21257 | -90.32458 | 34965 ft | 520 kts | 103° |
| 2026-05-01 13:57 | 29.19881 | -90.24325 | 34968 ft | 520 kts | 103° |
| 2026-05-01 13:57 | 29.18503 | -90.16205 | 34963 ft | 520 kts | 103° |
| 2026-05-01 13:58 | 29.17110 | -90.08084 | 34949 ft | 519 kts | 104° |
| 2026-05-01 13:58 | 29.15533 | -90.00083 | 34938 ft | 518 kts | 106° |
| 2026-05-01 13:59 | 29.13818 | -89.92069 | 34941 ft | 518 kts | 106° |
| 2026-05-01 13:59 | 29.12132 | -89.84073 | 34938 ft | 519 kts | 106° |
| 2026-05-01 14:00 | 29.10487 | -89.76018 | 34938 ft | 519 kts | 105° |
| 2026-05-01 14:00 | 29.08853 | -89.67985 | 34942 ft | 519 kts | 106° |
| 2026-05-01 14:01 | 29.07201 | -89.59958 | 34942 ft | 519 kts | 106° |
| 2026-05-01 14:01 | 29.05541 | -89.51941 | 34946 ft | 519 kts | 106° |
| 2026-05-01 14:02 | 29.03872 | -89.43916 | 34946 ft | 518 kts | 106° |
| 2026-05-01 14:02 | 29.02209 | -89.35953 | 34949 ft | 518 kts | 106° |
| 2026-05-01 14:03 | 29.00532 | -89.27947 | 34949 ft | 518 kts | 106° |
| 2026-05-01 14:03 | 28.98850 | -89.19934 | 34953 ft | 518 kts | 106° |
| 2026-05-01 14:04 | 28.97169 | -89.11934 | 34953 ft | 518 kts | 106° |
| 2026-05-01 14:04 | 28.95485 | -89.03939 | 34951 ft | 518 kts | 106° |
| 2026-05-01 14:05 | 28.93790 | -88.95951 | 34918 ft | 518 kts | 106° |
| 2026-05-01 14:05 | 28.92091 | -88.87954 | 34926 ft | 518 kts | 106° |
| 2026-05-01 14:06 | 28.90389 | -88.79960 | 34934 ft | 519 kts | 106° |
| 2026-05-01 14:06 | 28.88678 | -88.71961 | 34944 ft | 519 kts | 106° |
| 2026-05-01 14:07 | 28.86786 | -88.64026 | 34945 ft | 517 kts | 110° |
| 2026-05-01 14:08 | 28.83408 | -88.52339 | 34955 ft | 517 kts | 112° |
| 2026-05-01 14:08 | 28.81153 | -88.44558 | 34959 ft | 517 kts | 110° |
| 2026-05-01 14:09 | 28.78988 | -88.36746 | 34960 ft | 516 kts | 110° |
| 2026-05-01 14:09 | 28.76854 | -88.28959 | 34962 ft | 516 kts | 110° |
| 2026-05-01 14:10 | 28.74684 | -88.21165 | 34964 ft | 515 kts | 110° |
| 2026-05-01 14:10 | 28.72491 | -88.13391 | 34965 ft | 515 kts | 110° |
| 2026-05-01 14:11 | 28.70318 | -88.05668 | 34967 ft | 515 kts | 110° |
| 2026-05-01 14:11 | 28.67043 | -87.94042 | 34968 ft | 513 kts | 110° |
| 2026-05-01 14:12 | 28.64862 | -87.86318 | 34967 ft | 512 kts | 110° |
| 2026-05-01 14:12 | 28.62668 | -87.78604 | 34958 ft | 511 kts | 111° |
| 2026-05-01 14:13 | 28.60831 | -87.72152 | 34966 ft | 511 kts | 111° |
| 2026-05-01 14:13 | 28.58283 | -87.63201 | 34957 ft | 511 kts | 110° |
| 2026-05-01 14:14 | 28.56085 | -87.55503 | 34957 ft | 512 kts | 110° |
| 2026-05-01 14:14 | 28.53880 | -87.47797 | 34958 ft | 513 kts | 110° |
| 2026-05-01 14:15 | 28.51665 | -87.40076 | 34960 ft | 513 kts | 110° |
| 2026-05-01 14:15 | 28.49441 | -87.32368 | 34959 ft | 513 kts | 111° |
| 2026-05-01 14:16 | 28.47210 | -87.24665 | 34975 ft | 512 kts | 111° |
| 2026-05-01 14:16 | 28.45000 | -87.17016 | 34980 ft | 512 kts | 111° |
| 2026-05-01 14:17 | 28.42783 | -87.09338 | 34974 ft | 511 kts | 111° |
| 2026-05-01 14:17 | 28.40558 | -87.01665 | 34973 ft | 511 kts | 111° |
| 2026-05-01 14:18 | 28.38322 | -86.94010 | 34964 ft | 511 kts | 111° |
| 2026-05-01 14:18 | 28.36445 | -86.87594 | 34964 ft | 511 kts | 111° |
| 2026-05-01 14:19 | 28.33846 | -86.78690 | 34971 ft | 511 kts | 111° |
| 2026-05-01 14:19 | 28.31603 | -86.71037 | 34965 ft | 511 kts | 110° |
| 2026-05-01 14:20 | 28.28254 | -86.59550 | 34977 ft | 511 kts | 110° |